createdAt,value
2022-12-25T00:00:56.484Z,100.00
2022-12-25T00:03:13.787Z,100.00
2022-12-25T00:05:30.959Z,100.00
2022-12-25T00:07:48.017Z,100.00
2022-12-25T00:10:05.496Z,100.00
2022-12-25T00:12:22.621Z,100.00
2022-12-25T00:14:40.083Z,100.00
2022-12-25T00:16:57.483Z,100.00
2022-12-25T00:19:14.498Z,100.00
2022-12-25T00:21:32.480Z,100.00
2022-12-25T00:23:49.644Z,100.00
2022-12-25T00:26:07.092Z,100.00
2022-12-25T00:28:24.162Z,100.00
2022-12-25T00:30:41.332Z,100.00
2022-12-25T00:32:59.945Z,100.00
2022-12-25T00:35:17.397Z,100.00
2022-12-25T00:37:34.533Z,100.00
2022-12-25T00:39:51.426Z,100.00
2022-12-25T00:42:08.841Z,100.00
2022-12-25T00:44:26.202Z,100.00
2022-12-25T00:46:44.585Z,100.00
2022-12-25T00:49:02.917Z,100.00
2022-12-25T00:51:20.224Z,100.00
2022-12-25T00:53:37.527Z,100.00
2022-12-25T00:55:54.671Z,100.00
2022-12-25T00:58:14.218Z,100.00
2022-12-25T01:00:31.263Z,100.00
2022-12-25T01:02:49.671Z,100.00
2022-12-25T01:05:06.784Z,100.00
2022-12-25T01:07:23.794Z,100.00
2022-12-25T01:09:40.778Z,100.00
2022-12-25T01:11:57.787Z,100.00
2022-12-25T01:14:15.225Z,100.00
2022-12-25T01:16:32.589Z,100.00
2022-12-25T01:18:50.095Z,100.00
2022-12-25T01:21:07.254Z,100.00
2022-12-25T01:23:24.264Z,100.00
2022-12-25T01:25:41.653Z,100.00
2022-12-25T01:27:59.621Z,100.00
2022-12-25T01:30:16.985Z,100.00
2022-12-25T01:32:34.079Z,100.00
2022-12-25T01:34:55.851Z,100.00
2022-12-25T01:37:13.410Z,100.00
2022-12-25T01:39:30.476Z,100.00
2022-12-25T01:41:50.189Z,100.00
2022-12-25T01:44:07.577Z,100.00
2022-12-25T01:46:24.767Z,100.00
2022-12-25T01:48:41.959Z,100.00
2022-12-25T01:50:59.986Z,100.00
2022-12-25T01:53:17.326Z,100.00
2022-12-25T01:55:35.456Z,100.00
2022-12-25T01:57:52.498Z,100.00
2022-12-25T02:00:09.757Z,100.00
2022-12-25T02:02:26.860Z,100.00
2022-12-25T02:04:44.339Z,100.00
2022-12-25T02:07:01.220Z,100.00
2022-12-25T02:09:18.296Z,100.00
2022-12-25T02:11:35.403Z,100.00
2022-12-25T02:13:52.570Z,100.00
2022-12-25T02:16:09.557Z,100.00
2022-12-25T02:18:26.588Z,100.00
2022-12-25T02:20:43.940Z,100.00
2022-12-25T02:23:01.358Z,100.00
2022-12-25T02:25:18.493Z,100.00
2022-12-25T02:27:35.557Z,100.00
2022-12-25T02:29:52.684Z,100.00
2022-12-25T02:32:09.801Z,100.00
2022-12-25T02:34:27.164Z,100.00
2022-12-25T02:36:44.538Z,100.00
2022-12-25T02:39:01.873Z,100.00
2022-12-25T02:41:19.989Z,100.00
2022-12-25T02:43:38.032Z,100.00
2022-12-25T02:45:55.045Z,100.00
2022-12-25T02:48:12.014Z,100.00
2022-12-25T02:50:29.373Z,100.00
2022-12-25T02:52:46.387Z,100.00
2022-12-25T02:55:03.462Z,100.00
2022-12-25T02:57:20.779Z,100.00
2022-12-25T02:59:37.991Z,100.00
2022-12-25T03:01:55.402Z,100.00
2022-12-25T03:04:12.732Z,100.00
2022-12-25T03:06:29.648Z,100.00
2022-12-25T03:08:46.611Z,100.00
2022-12-25T03:11:03.654Z,100.00
2022-12-25T03:13:20.716Z,100.00
2022-12-25T03:15:37.721Z,100.00
2022-12-25T03:17:55.061Z,100.00
2022-12-25T03:20:12.120Z,100.00
2022-12-25T03:22:30.017Z,100.00
2022-12-25T03:24:47.339Z,100.00
2022-12-25T03:27:04.621Z,100.00
2022-12-25T03:29:27.142Z,100.00
2022-12-25T03:31:47.239Z,100.00
2022-12-25T03:34:04.440Z,100.00
2022-12-25T03:36:21.480Z,100.00
2022-12-25T03:38:38.421Z,100.00
2022-12-25T03:40:55.348Z,100.00
2022-12-25T03:43:12.276Z,100.00
2022-12-25T03:45:29.325Z,100.00
2022-12-25T03:47:46.368Z,100.00
2022-12-25T03:50:03.282Z,100.00
2022-12-25T03:52:21.263Z,100.00
2022-12-25T03:54:38.353Z,100.00
2022-12-25T03:56:55.604Z,100.00
2022-12-25T03:59:16.531Z,100.00
2022-12-25T04:01:36.827Z,100.00
2022-12-25T04:03:53.804Z,100.00
2022-12-25T04:06:10.856Z,100.00
2022-12-25T04:08:27.754Z,100.00
2022-12-25T04:10:44.653Z,100.00
2022-12-25T04:13:01.692Z,100.00
2022-12-25T04:15:18.939Z,100.00
2022-12-25T04:17:35.990Z,100.00
2022-12-25T04:19:52.875Z,100.00
2022-12-25T04:22:09.889Z,100.00
2022-12-25T04:24:26.799Z,100.00
2022-12-25T04:26:44.156Z,100.00
2022-12-25T04:29:01.209Z,100.00
2022-12-25T04:31:18.544Z,100.00
2022-12-25T04:33:35.565Z,100.00
2022-12-25T04:35:52.636Z,100.00
2022-12-25T04:38:09.685Z,100.00
2022-12-25T04:40:26.705Z,100.00
2022-12-25T04:42:43.755Z,100.00
2022-12-25T04:45:01.011Z,100.00
2022-12-25T04:47:18.292Z,100.00
2022-12-25T04:49:35.202Z,100.00
2022-12-25T04:51:52.146Z,100.00
2022-12-25T04:54:09.214Z,100.00
2022-12-25T04:56:26.115Z,100.00
2022-12-25T04:58:43.413Z,100.00
2022-12-25T05:01:01.692Z,100.00
2022-12-25T05:03:18.723Z,100.00
2022-12-25T05:05:36.016Z,100.00
2022-12-25T05:07:53.322Z,100.00
2022-12-25T05:10:10.266Z,100.00
2022-12-25T05:12:27.341Z,100.00
2022-12-25T05:14:44.272Z,100.00
2022-12-25T05:17:01.310Z,100.00
2022-12-25T05:19:18.219Z,100.00
2022-12-25T05:21:35.430Z,100.00
2022-12-25T05:23:52.419Z,100.00
2022-12-25T05:26:09.372Z,100.00
2022-12-25T05:28:26.280Z,100.00
2022-12-25T05:30:43.240Z,100.00
2022-12-25T05:33:00.185Z,100.00
2022-12-25T05:35:17.884Z,100.00
2022-12-25T05:37:34.788Z,100.00
2022-12-25T05:39:51.985Z,100.00
2022-12-25T05:42:09.015Z,100.00
2022-12-25T05:44:25.961Z,100.00
2022-12-25T05:46:42.972Z,100.00
2022-12-25T05:48:59.896Z,100.00
2022-12-25T05:51:16.872Z,100.00
2022-12-25T05:53:33.835Z,100.00
2022-12-25T05:55:50.734Z,100.00
2022-12-25T05:58:07.823Z,100.00
2022-12-25T06:00:24.867Z,100.00
2022-12-25T06:02:42.021Z,100.00
2022-12-25T06:04:59.440Z,100.00
2022-12-25T06:07:16.442Z,100.00
2022-12-25T06:09:33.480Z,100.00
2022-12-25T06:11:50.555Z,100.00
2022-12-25T06:14:07.469Z,100.00
2022-12-25T06:16:24.502Z,100.00
2022-12-25T06:18:41.528Z,100.00
2022-12-25T06:20:58.495Z,100.00
2022-12-25T06:23:15.594Z,100.00
2022-12-25T06:25:32.641Z,100.00
2022-12-25T06:27:49.551Z,100.00
2022-12-25T06:30:07.553Z,100.00
2022-12-25T06:32:24.793Z,100.00
2022-12-25T06:34:41.683Z,100.00
2022-12-25T06:36:58.622Z,100.00
2022-12-25T06:39:15.965Z,100.00
2022-12-25T06:41:33.004Z,100.00
2022-12-25T06:43:49.934Z,100.00
2022-12-25T06:46:10.468Z,100.00
2022-12-25T06:48:27.926Z,100.00
2022-12-25T06:50:45.886Z,100.00
2022-12-25T06:53:02.917Z,100.00
2022-12-25T06:55:19.948Z,100.00
2022-12-25T06:57:36.993Z,100.00
2022-12-25T06:59:55.558Z,100.00
2022-12-25T07:02:13.044Z,100.00
2022-12-25T07:04:30.301Z,100.00
2022-12-25T07:06:47.676Z,100.00
2022-12-25T07:09:04.885Z,100.00
2022-12-25T07:11:22.117Z,100.00
2022-12-25T07:13:39.413Z,100.00
2022-12-25T07:15:57.725Z,100.00
2022-12-25T07:18:14.756Z,100.00
2022-12-25T07:20:31.785Z,100.00
2022-12-25T07:22:48.843Z,100.00
2022-12-25T07:25:06.153Z,100.00
2022-12-25T07:27:23.391Z,100.00
2022-12-25T07:29:41.389Z,100.00
2022-12-25T07:31:58.338Z,100.00
2022-12-25T07:34:15.742Z,100.00
2022-12-25T07:36:32.728Z,100.00
2022-12-25T07:38:49.723Z,100.00
2022-12-25T07:41:06.783Z,100.00
2022-12-25T07:43:24.068Z,100.00
2022-12-25T07:45:41.136Z,100.00
2022-12-25T07:48:04.361Z,100.00
2022-12-25T07:50:22.140Z,100.00
2022-12-25T07:52:43.403Z,100.00
2022-12-25T07:55:01.154Z,100.00
2022-12-25T07:57:20.601Z,100.00
2022-12-25T07:59:37.624Z,100.00
2022-12-25T08:01:54.995Z,100.00
2022-12-25T08:04:12.276Z,100.00
2022-12-25T08:06:29.683Z,100.00
2022-12-25T08:08:47.072Z,100.00
2022-12-25T08:11:05.119Z,100.00
2022-12-25T08:13:22.169Z,100.00
2022-12-25T08:15:40.375Z,100.00
2022-12-25T08:17:57.412Z,100.00
2022-12-25T08:20:14.367Z,100.00
2022-12-25T08:22:31.401Z,100.00
2022-12-25T08:24:48.680Z,100.00
2022-12-25T08:27:05.993Z,100.00
2022-12-25T08:29:23.223Z,100.00
2022-12-25T08:31:45.899Z,100.00
2022-12-25T08:34:03.593Z,100.00
2022-12-25T08:36:20.525Z,100.00
2022-12-25T08:38:37.872Z,100.00
2022-12-25T08:40:54.885Z,100.00
2022-12-25T08:43:11.954Z,100.00
2022-12-25T08:45:34.826Z,100.00
2022-12-25T08:47:52.484Z,100.00
2022-12-25T08:50:09.758Z,100.00
2022-12-25T08:52:26.893Z,100.00
2022-12-25T08:54:44.133Z,100.00
2022-12-25T08:57:03.030Z,100.00
2022-12-25T08:59:20.193Z,100.00
2022-12-25T09:01:37.532Z,100.00
2022-12-25T09:03:54.600Z,100.00
2022-12-25T09:06:11.662Z,100.00
2022-12-25T09:08:28.699Z,100.00
2022-12-25T09:10:45.962Z,100.00
2022-12-25T09:13:02.863Z,100.00
2022-12-25T09:15:19.796Z,100.00
2022-12-25T09:17:37.830Z,100.00
2022-12-25T09:19:55.071Z,100.00
2022-12-25T09:22:12.113Z,100.00
2022-12-25T09:24:29.391Z,100.00
2022-12-25T09:26:46.340Z,100.00
2022-12-25T09:29:03.259Z,100.00
2022-12-25T09:31:20.387Z,100.00
2022-12-25T09:33:37.551Z,100.00
2022-12-25T09:35:54.536Z,100.00
2022-12-25T09:38:11.749Z,100.00
2022-12-25T09:40:28.859Z,100.00
2022-12-25T09:42:46.169Z,100.00
2022-12-25T09:45:03.475Z,100.00
2022-12-25T09:47:20.753Z,100.00
2022-12-25T09:49:38.781Z,100.00
2022-12-25T09:51:56.074Z,100.00
2022-12-25T09:54:13.123Z,100.00
2022-12-25T09:56:30.363Z,100.00
2022-12-25T09:58:47.255Z,100.00
2022-12-25T10:01:04.508Z,100.00
2022-12-25T10:03:21.491Z,100.00
2022-12-25T10:05:38.458Z,100.00
2022-12-25T10:07:55.507Z,100.00
2022-12-25T10:10:12.861Z,100.00
2022-12-25T10:12:30.087Z,100.00
2022-12-25T10:14:47.407Z,100.00
2022-12-25T10:17:04.741Z,100.00
2022-12-25T10:19:22.105Z,100.00
2022-12-25T10:21:39.113Z,100.00
2022-12-25T10:23:56.163Z,100.00
2022-12-25T10:26:13.246Z,100.00
2022-12-25T10:28:30.540Z,100.00
2022-12-25T10:30:47.488Z,99.93
2022-12-25T10:33:04.534Z,99.89
2022-12-25T10:35:21.793Z,99.76
2022-12-25T10:37:38.850Z,100.00
2022-12-25T10:39:55.826Z,99.92
2022-12-25T10:42:12.880Z,99.99
2022-12-25T10:44:30.225Z,100.00
2022-12-25T10:46:47.414Z,100.00
2022-12-25T10:49:04.428Z,100.00
2022-12-25T10:51:21.443Z,99.95
2022-12-25T10:53:38.496Z,100.00
2022-12-25T10:55:55.531Z,100.00
2022-12-25T10:58:12.410Z,100.00
2022-12-25T11:00:29.315Z,100.00
2022-12-25T11:02:47.675Z,100.00
2022-12-25T11:05:04.880Z,100.00
2022-12-25T11:07:21.979Z,100.00
2022-12-25T11:09:38.948Z,100.00
2022-12-25T11:11:56.017Z,100.00
2022-12-25T11:14:13.025Z,100.00
2022-12-25T11:16:30.466Z,100.00
2022-12-25T11:18:47.637Z,100.00
2022-12-25T11:21:05.637Z,100.00
2022-12-25T11:23:23.599Z,100.00
2022-12-25T11:25:40.669Z,100.00
2022-12-25T11:27:57.657Z,100.00
2022-12-25T11:30:16.177Z,100.00
2022-12-25T11:32:33.602Z,100.00
2022-12-25T11:34:50.680Z,100.00
2022-12-25T11:37:08.926Z,100.00
2022-12-25T11:50:10.951Z,98.41
2022-12-25T11:52:27.856Z,98.02
2022-12-25T11:54:44.884Z,98.17
2022-12-25T11:57:01.785Z,98.14
2022-12-25T11:59:19.094Z,97.28
2022-12-25T12:01:36.518Z,96.79
2022-12-25T12:03:53.661Z,96.68
2022-12-25T12:06:10.980Z,96.20
2022-12-25T12:08:28.027Z,95.79
2022-12-25T12:10:45.268Z,95.18
2022-12-25T12:13:02.198Z,95.06
2022-12-25T12:15:19.440Z,95.21
2022-12-25T12:17:36.703Z,95.29
2022-12-25T12:19:53.745Z,94.68
2022-12-25T12:22:10.773Z,95.36
2022-12-25T12:24:27.675Z,94.33
2022-12-25T12:26:45.655Z,95.89
2022-12-25T12:29:02.673Z,94.92
2022-12-25T12:31:19.682Z,94.26
2022-12-25T12:33:36.982Z,94.68
2022-12-25T12:35:54.233Z,94.28
2022-12-25T12:38:11.240Z,95.10
2022-12-25T12:40:28.592Z,94.34
2022-12-25T12:42:45.537Z,94.56
2022-12-25T12:45:02.828Z,94.58
2022-12-25T12:47:19.837Z,94.73
2022-12-25T12:49:36.766Z,94.54
2022-12-25T12:51:53.756Z,94.59
2022-12-25T12:54:11.035Z,94.69
2022-12-25T12:56:27.975Z,94.41
2022-12-25T12:58:45.938Z,93.48
2022-12-25T13:01:02.876Z,93.63
2022-12-25T13:03:20.200Z,94.03
2022-12-25T13:05:37.353Z,94.04
2022-12-25T13:07:54.588Z,94.13
2022-12-25T13:10:11.879Z,92.80
2022-12-25T13:12:28.821Z,92.69
2022-12-25T13:14:45.860Z,94.35
2022-12-25T13:17:02.830Z,93.79
2022-12-25T13:19:20.066Z,93.55
2022-12-25T13:21:38.119Z,94.80
2022-12-25T13:23:55.406Z,94.96
2022-12-25T13:26:12.447Z,95.22
2022-12-25T13:28:29.401Z,94.33
2022-12-25T13:30:47.631Z,95.49
2022-12-25T13:33:04.654Z,94.61
2022-12-25T13:35:21.863Z,94.71
2022-12-25T13:37:39.166Z,95.49
2022-12-25T13:39:56.268Z,95.61
2022-12-25T13:42:13.491Z,95.69
2022-12-25T13:44:30.512Z,95.39
2022-12-25T13:46:47.587Z,96.58
2022-12-25T13:49:05.867Z,96.62
2022-12-25T13:51:22.805Z,95.01
2022-12-25T13:53:40.744Z,95.41
2022-12-25T13:55:57.824Z,96.25
2022-12-25T13:58:14.752Z,95.84
2022-12-25T14:00:31.787Z,95.94
2022-12-25T14:02:48.973Z,94.94
2022-12-25T14:05:05.962Z,94.25
2022-12-25T14:07:22.880Z,94.60
2022-12-25T14:09:40.223Z,93.64
2022-12-25T14:11:57.541Z,94.18
2022-12-25T14:14:14.528Z,93.23
2022-12-25T14:16:31.855Z,94.71
2022-12-25T14:18:49.196Z,93.60
2022-12-25T14:21:06.299Z,95.17
2022-12-25T14:23:23.310Z,94.73
2022-12-25T14:25:40.275Z,96.01
2022-12-25T14:27:57.548Z,94.72
2022-12-25T14:30:14.806Z,94.92
2022-12-25T14:32:32.052Z,96.97
2022-12-25T14:34:49.413Z,96.89
2022-12-25T14:37:06.350Z,97.31
2022-12-25T14:39:23.247Z,96.87
2022-12-25T14:41:41.257Z,97.24
2022-12-25T14:43:58.505Z,97.79
2022-12-25T14:46:16.522Z,97.86
2022-12-25T14:48:33.565Z,97.56
2022-12-25T14:50:50.833Z,97.87
2022-12-25T14:53:08.831Z,98.45
2022-12-25T14:55:26.064Z,98.68
2022-12-25T14:57:44.146Z,98.77
2022-12-25T15:00:01.273Z,99.36
2022-12-25T15:02:18.315Z,99.74
2022-12-25T15:04:35.441Z,99.53
2022-12-25T15:06:52.818Z,99.52
2022-12-25T15:09:09.891Z,99.29
2022-12-25T15:11:27.189Z,99.37
2022-12-25T15:13:44.302Z,99.64
2022-12-25T15:16:01.286Z,99.22
2022-12-25T15:18:18.361Z,99.32
2022-12-25T15:20:36.728Z,99.52
2022-12-25T15:23:18.491Z,99.37
2022-12-25T15:25:30.853Z,99.53
2022-12-25T15:27:47.826Z,99.50
2022-12-25T15:30:10.193Z,99.71
2022-12-25T15:32:28.073Z,99.76
2022-12-25T15:34:45.400Z,99.30
2022-12-25T15:37:02.431Z,99.42
2022-12-25T15:39:19.469Z,99.21
2022-12-25T15:41:36.662Z,99.59
2022-12-25T15:43:53.649Z,99.72
2022-12-25T15:46:10.937Z,99.64
2022-12-25T15:48:28.011Z,99.12
2022-12-25T15:50:44.975Z,99.25
2022-12-25T15:53:02.240Z,100.00
2022-12-25T15:55:20.487Z,98.81
2022-12-25T15:57:37.466Z,98.59
2022-12-25T15:59:54.532Z,99.76
2022-12-25T16:02:11.557Z,100.00
2022-12-25T16:04:28.604Z,98.87
2022-12-25T16:06:45.905Z,98.76
2022-12-25T16:09:02.833Z,99.61
2022-12-25T16:11:19.901Z,98.90
2022-12-25T16:13:37.154Z,99.14
2022-12-25T16:15:54.492Z,99.17
2022-12-25T16:18:11.814Z,99.51
2022-12-25T16:20:29.159Z,100.00
2022-12-25T16:22:46.479Z,99.69
2022-12-25T16:25:03.431Z,100.00
2022-12-25T16:27:21.370Z,99.46
2022-12-25T16:29:38.365Z,99.39
2022-12-25T16:31:55.298Z,100.00
2022-12-25T16:34:12.323Z,100.00
2022-12-25T16:36:29.264Z,100.00
2022-12-25T16:38:46.366Z,99.70
2022-12-25T16:41:03.303Z,100.00
2022-12-25T16:43:23.991Z,100.00
2022-12-25T16:45:42.318Z,100.00
2022-12-25T16:47:59.599Z,100.00
2022-12-25T16:50:16.548Z,100.00
2022-12-25T16:52:33.942Z,100.00
2022-12-25T16:54:51.027Z,100.00
2022-12-25T16:57:09.089Z,100.00
2022-12-25T16:59:26.022Z,99.65
2022-12-25T17:01:43.555Z,100.00
2022-12-25T17:04:00.761Z,99.87
2022-12-25T17:06:17.977Z,100.00
2022-12-25T17:08:35.264Z,99.83
2022-12-25T17:10:52.332Z,100.00
2022-12-25T17:13:09.296Z,100.00
2022-12-25T17:15:27.609Z,100.00
2022-12-25T17:17:44.870Z,100.00
2022-12-25T17:20:01.990Z,100.00
2022-12-25T17:22:19.271Z,100.00
2022-12-25T17:24:37.340Z,100.00
2022-12-25T17:26:54.398Z,100.00
2022-12-25T17:29:12.231Z,100.00
2022-12-25T17:31:30.679Z,100.00
2022-12-25T17:33:48.062Z,100.00
2022-12-25T17:36:05.327Z,100.00
2022-12-25T17:38:22.382Z,100.00
2022-12-25T17:40:39.668Z,100.00
2022-12-25T17:42:56.591Z,100.00
2022-12-25T17:45:14.835Z,100.00
2022-12-25T17:47:32.170Z,100.00
2022-12-25T17:49:49.199Z,100.00
2022-12-25T17:52:06.246Z,100.00
2022-12-25T17:54:23.596Z,100.00
2022-12-25T17:56:40.683Z,100.00
2022-12-25T17:58:57.745Z,100.00
2022-12-25T18:01:14.727Z,100.00
2022-12-25T18:03:31.915Z,100.00
2022-12-25T18:05:49.301Z,100.00
2022-12-25T18:08:06.597Z,100.00
2022-12-25T18:10:23.569Z,100.00
2022-12-25T18:12:40.602Z,100.00
2022-12-25T18:14:57.980Z,100.00
2022-12-25T18:17:15.065Z,100.00
2022-12-25T18:19:32.089Z,100.00
2022-12-25T18:21:49.362Z,100.00
2022-12-25T18:24:06.366Z,100.00
2022-12-25T18:26:23.407Z,100.00
2022-12-25T18:28:40.535Z,100.00
2022-12-25T18:30:58.840Z,100.00
2022-12-25T18:33:15.848Z,100.00
2022-12-25T18:35:32.785Z,100.00
2022-12-25T18:37:49.801Z,100.00
2022-12-25T18:40:06.718Z,100.00
2022-12-25T18:42:23.886Z,100.00
2022-12-25T18:44:40.898Z,100.00
2022-12-25T18:46:58.771Z,100.00
2022-12-25T18:49:15.815Z,100.00
2022-12-25T18:51:36.867Z,100.00
2022-12-25T18:53:54.315Z,100.00
2022-12-25T18:56:11.463Z,100.00
2022-12-25T18:58:28.728Z,100.00
2022-12-25T19:00:46.138Z,100.00
2022-12-25T19:03:03.299Z,100.00
2022-12-25T19:05:20.380Z,100.00
2022-12-25T19:07:37.700Z,100.00
2022-12-25T19:09:54.904Z,100.00
2022-12-25T19:12:12.699Z,100.00
2022-12-25T19:14:29.839Z,100.00
2022-12-25T19:17:05.059Z,100.00
2022-12-25T19:19:22.145Z,100.00
2022-12-25T19:21:39.420Z,100.00
2022-12-25T19:23:56.493Z,100.00
2022-12-25T19:26:13.499Z,100.00
2022-12-25T19:28:31.596Z,100.00
2022-12-25T19:30:48.654Z,100.00
2022-12-25T19:33:05.701Z,100.00
2022-12-25T19:35:22.704Z,100.00
2022-12-25T19:37:41.773Z,100.00
2022-12-25T19:39:59.061Z,100.00
2022-12-25T19:42:16.328Z,100.00
2022-12-25T19:44:33.622Z,100.00
2022-12-25T19:46:51.924Z,100.00
2022-12-25T19:49:08.865Z,100.00
2022-12-25T19:51:25.791Z,100.00
2022-12-25T19:53:42.729Z,100.00
2022-12-25T19:55:59.732Z,100.00
2022-12-25T19:58:16.892Z,100.00
2022-12-25T20:00:34.033Z,100.00
2022-12-25T20:02:51.236Z,100.00
2022-12-25T20:05:08.448Z,100.00
2022-12-25T20:07:25.363Z,100.00
2022-12-25T20:09:42.692Z,100.00
2022-12-25T20:12:00.015Z,100.00
2022-12-25T20:14:18.140Z,100.00
2022-12-25T20:16:35.458Z,100.00
2022-12-25T20:18:53.813Z,100.00
2022-12-25T20:21:10.795Z,100.00
2022-12-25T20:23:28.175Z,100.00
2022-12-25T20:25:45.225Z,100.00
2022-12-25T20:28:02.548Z,100.00
2022-12-25T20:30:19.623Z,100.00
2022-12-25T20:32:36.974Z,100.00
2022-12-25T20:34:54.045Z,100.00
2022-12-25T20:37:13.883Z,100.00
2022-12-25T20:39:30.972Z,100.00
2022-12-25T20:41:47.952Z,100.00
2022-12-25T20:44:05.277Z,100.00
2022-12-25T20:46:22.485Z,100.00
2022-12-25T20:48:40.676Z,100.00
2022-12-25T20:50:57.698Z,100.00
2022-12-25T20:53:14.770Z,100.00
2022-12-25T20:55:32.048Z,99.68
2022-12-25T20:57:49.078Z,99.78
2022-12-25T21:00:07.347Z,99.83
2022-12-25T21:02:35.590Z,99.99
2022-12-25T21:04:54.387Z,98.94
2022-12-25T21:07:11.450Z,99.65
2022-12-25T21:09:28.766Z,99.68
2022-12-25T21:11:45.867Z,98.78
2022-12-25T21:14:03.151Z,99.69
2022-12-25T21:16:20.363Z,98.56
2022-12-25T21:18:37.565Z,99.84
2022-12-25T21:20:54.595Z,99.66
2022-12-25T21:23:11.875Z,98.98
2022-12-25T21:25:28.951Z,98.17
2022-12-25T21:27:46.274Z,98.90
2022-12-25T21:30:15.016Z,97.95
2022-12-25T21:32:32.909Z,98.43
2022-12-25T21:34:49.869Z,98.13
2022-12-25T21:37:07.182Z,98.26
2022-12-25T21:39:24.491Z,98.59
2022-12-25T21:41:42.910Z,99.27
2022-12-25T21:44:00.305Z,98.96
2022-12-25T21:46:17.595Z,99.01
2022-12-25T21:48:34.997Z,99.80
2022-12-25T21:50:52.020Z,99.82
2022-12-25T21:53:09.369Z,100.00
2022-12-25T21:55:26.592Z,100.00
2022-12-25T21:57:43.863Z,100.00
2022-12-25T22:00:02.283Z,100.00
2022-12-25T22:02:20.524Z,100.00
2022-12-25T22:04:37.754Z,99.46
2022-12-25T22:06:56.034Z,99.54
2022-12-25T22:09:13.088Z,99.74
2022-12-25T22:11:30.434Z,100.00
2022-12-25T22:13:47.379Z,100.00
2022-12-25T22:16:04.707Z,100.00
2022-12-25T22:18:21.846Z,100.00
2022-12-25T22:20:38.965Z,100.00
2022-12-25T22:22:56.263Z,100.00
2022-12-25T22:25:13.311Z,100.00
2022-12-25T22:27:30.375Z,100.00
2022-12-25T22:29:47.405Z,100.00
2022-12-25T22:32:04.414Z,100.00
2022-12-25T22:34:21.783Z,99.63
2022-12-25T22:36:39.030Z,99.51
2022-12-25T22:38:56.055Z,98.89
2022-12-25T22:41:14.411Z,99.60
2022-12-25T22:44:06.390Z,99.15
2022-12-25T22:46:08.665Z,98.44
2022-12-25T22:48:25.699Z,97.87
2022-12-25T22:50:42.971Z,96.30
2022-12-25T22:53:00.299Z,96.34
2022-12-25T22:55:17.220Z,95.85
2022-12-25T22:57:34.399Z,95.91
2022-12-25T22:59:51.449Z,95.21
2022-12-25T23:02:08.643Z,94.47
2022-12-25T23:04:26.044Z,94.68
2022-12-25T23:06:43.085Z,95.14
2022-12-25T23:09:00.059Z,94.89
2022-12-25T23:11:17.167Z,94.15
2022-12-25T23:13:35.402Z,95.09
2022-12-25T23:15:53.832Z,95.19
2022-12-25T23:18:10.967Z,93.99
2022-12-25T23:20:28.289Z,94.32
2022-12-25T23:22:45.587Z,94.77
2022-12-25T23:25:02.912Z,94.69
2022-12-25T23:27:20.003Z,94.47
2022-12-25T23:29:37.432Z,94.36
2022-12-25T23:31:54.654Z,94.68
2022-12-25T23:34:11.612Z,93.63
2022-12-25T23:36:28.742Z,93.31
2022-12-25T23:38:46.762Z,93.02
2022-12-25T23:41:04.798Z,93.73
2022-12-25T23:43:21.825Z,94.27
2022-12-25T23:45:41.550Z,93.94
2022-12-25T23:47:58.745Z,93.51
2022-12-25T23:50:15.692Z,93.80
2022-12-25T23:52:33.054Z,93.86
2022-12-25T23:54:50.453Z,93.68
2022-12-25T23:57:07.388Z,93.95
2022-12-25T23:59:24.321Z,93.71
